Startpagina
METAR-TAF:

METAR-TAF

Vliegvelden :

Wiener Neustadt, Oostenrijk

breedte: 47-50-36N, lengte: 016-15-29E, hoogte: 272 m

Actueel weer

Dit bericht is 36 minuten geleden gemaakt, om 11:00 UTC
Wind 6 kt uit het noordnoordoosten
Temperatuur
Druk

METAR: LOAN 201100Z 03006KT 35KM FEW050CU BKN300CI

Tijdstip: 13:36 (11:36 UTC)

Verwachting

Dit bericht is 11 minuten geleden gemaakt, om 11:25 UTC
Verwachting geldig van 20 om 12 UTC tot 20 om 21 UTC
Wind 6 kt uit het oostnoordoosten
Zicht 10 km of meer
Weinig wolken op 5000 ft
Gebroken wolken op 30000 ft
Tijdelijke
van 20 om 13 UTC tot 20 om 17 UTC
Weinig wolken op 5000 ft, Stapelwolken.
Verspreide wolken op 6000 ft

TAF: LOAN 201125Z 2012/2021 06006KT 9999 FEW050 BKN300 TEMPO 2013/2017 FEW050TCU SCT060

Waarnemingen en weersverwachtingen van meer dan 4000 vliegvelden (METAR en TAF).

De beschikbare stations zijn de gele en rode punten op de kaart.

Ga met uw muis naar het station om de naam te zien.

Klik dan om waarnemingen en weersverwachtingen te zien.

kaart wijzigen: klik op de groene knoppen met een zwart kruis om in te zoomen, op de groene knop met een streepje om uit te zoomen of op de groene pijlen voor aangrenzende kaarten.


METAR-TAF: